Charles City, IA

2:43 PM CDT on May 24, 2015 (GMT -0500)
Waterloo Municipal | | Change Station
CLOSE
Current Station
Airport
Location: Waterloo,
Elevation: 873 ft
Nearby Weather Stations

Elev 873 ft 42.55 °N, 92.40 °W | Updated 49 minutes ago

Overcast
Overcast
61 °F
Feels Like 61 °F
N
16
Wind Variable Wind from SE

Today
High -- | Low -- °F
--% Chance of Precip.
Yesterday
High -- | Low -- °F
Precip. -- in
5:39 AM 8:36 PM
Waxing Crescent, 41% visible
Pressure 29.90 in
Visibility 9.0 miles
Clouds Mostly Cloudy 1200 ft
Overcast 1900 ft
Dew Point 58 °F
Humidity 90%
Rainfall 0.58 in
Snow Depth Not available.
UV 3 out of 12
Pollen 3.90 out of 12
Air Quality Not available.
Flu Activity Sporadic
METAR KALO 241854Z 13014KT 9SM BKN012 OVC019 16/14 A2990 RMK AO2 SLP124 T01610144

More Conditions Fewer Conditions

Pressure 29.90 in
Visibility 9.0 miles
Clouds Mostly Cloudy 1200 ft
Overcast 1900 ft
Dew Point 58 °F
Humidity 90%
Rainfall 0.58 in
Snow Depth Not available.
UV 3 out of 12
Pollen 3.90 out of 12
Air Quality Not available.
Flu Activity Sporadic
METAR KALO 241854Z 13014KT 9SM BKN012 OVC019 16/14 A2990 RMK AO2 SLP124 T01610144

More Conditions Fewer Conditions

10-Day Weather Forecast

Almanac

Astronomy

May. 24, 2015 Rise Set
Actual Time
Civil Twilight
Nautical Twilight
Astronomical Twilight
Moon
Length of Visible Light
Length of Day
Tomorrow will be .
, % of the Moon is Illuminated

Today's Extremes

State Highs State Lows

Community

WunderPhotos

Upload Photos

1,823,844 photos uploaded!

WunderBlogs® & News

Nearby

Air Quality

  Air Quality AQ Index Pollutant
Not available.

Snow Depth

Station Depth Elevation

Earthquake Activity

City Distance Mag. Time & Date
Minimum magnitude displayed is 2.5.

Coastal Water Temperatures

Place Temperature

Stations

Nearby Weather Stations

Station Location Temp. Windchill Dew Point Humidity Wind Precip. Elev Updated Type